createdAt,value
2018-10-02T00:00:26.285Z,67.97
2018-10-02T00:02:56.242Z,67.13
2018-10-02T00:05:25.960Z,67.53
2018-10-02T00:07:55.872Z,68.30
2018-10-02T00:10:25.296Z,68.08
2018-10-02T00:12:59.851Z,68.52
2018-10-02T00:15:29.300Z,67.61
2018-10-02T00:17:58.905Z,67.41
2018-10-02T00:20:28.340Z,67.58
2018-10-02T00:22:58.016Z,68.79
2018-10-02T00:25:27.623Z,68.00
2018-10-02T00:27:57.071Z,68.07
2018-10-02T00:30:26.492Z,67.80
2018-10-02T00:32:55.920Z,67.20
2018-10-02T00:35:25.312Z,66.58
2018-10-02T00:37:54.740Z,66.61
2018-10-02T00:40:24.469Z,66.00
2018-10-02T00:42:54.001Z,66.14
2018-10-02T00:45:23.656Z,65.92
2018-10-02T00:47:53.093Z,66.49
2018-10-02T00:50:22.523Z,66.92
2018-10-02T00:52:52.478Z,66.54
2018-10-02T00:55:22.185Z,65.55
2018-10-02T00:57:51.631Z,66.61
2018-10-02T01:00:21.196Z,66.54
2018-10-02T01:02:50.801Z,66.23
2018-10-02T01:05:20.306Z,67.25
2018-10-02T01:07:49.708Z,66.33
2018-10-02T01:10:19.722Z,66.73
2018-10-02T01:12:49.388Z,66.43
2018-10-02T01:15:18.836Z,65.72
2018-10-02T01:17:48.439Z,66.67
2018-10-02T01:20:17.940Z,66.85
2018-10-02T01:22:47.550Z,66.72
2018-10-02T01:25:17.157Z,66.96
2018-10-02T01:27:46.767Z,66.25
2018-10-02T01:30:16.372Z,67.03
2018-10-02T01:32:45.900Z,66.38
2018-10-02T01:35:15.583Z,66.97
2018-10-02T01:37:45.352Z,67.34
2018-10-02T01:40:15.003Z,67.15
2018-10-02T01:42:44.497Z,67.80
2018-10-02T01:45:14.010Z,67.67
2018-10-02T01:47:43.630Z,67.88
2018-10-02T01:50:13.224Z,67.26
2018-10-02T01:52:42.725Z,66.96
2018-10-02T01:55:12.152Z,66.92
2018-10-02T01:57:41.633Z,66.55
2018-10-02T02:00:11.241Z,68.54
2018-10-02T02:02:40.885Z,67.80
2018-10-02T02:05:10.279Z,67.93
2018-10-02T02:07:39.708Z,67.82
2018-10-02T02:10:09.182Z,67.12
2018-10-02T02:12:38.774Z,67.27
2018-10-02T02:15:08.471Z,67.86
2018-10-02T02:17:37.976Z,67.96
2018-10-02T02:20:07.485Z,67.84
2018-10-02T02:22:37.100Z,66.80
2018-10-02T02:25:06.571Z,66.22
2018-10-02T02:27:36.195Z,66.28
2018-10-02T02:30:05.802Z,66.50
2018-10-02T02:32:35.511Z,67.10
2018-10-02T02:35:04.984Z,66.68
2018-10-02T02:37:34.663Z,68.70
2018-10-02T02:40:05.567Z,68.46
2018-10-02T02:42:35.063Z,67.94
2018-10-02T02:45:04.441Z,68.11
2018-10-02T02:47:39.185Z,68.24
2018-10-02T02:50:13.820Z,68.57
2018-10-02T02:52:47.832Z,68.91
2018-10-02T02:55:17.330Z,69.14
2018-10-02T02:57:46.835Z,68.89
2018-10-02T03:00:16.349Z,68.02
2018-10-02T03:02:45.951Z,69.20
2018-10-02T03:05:15.552Z,68.48
2018-10-02T03:07:45.170Z,67.89
2018-10-02T03:10:14.769Z,67.60
2018-10-02T03:12:44.280Z,67.82
2018-10-02T03:15:13.704Z,68.18
2018-10-02T03:17:43.286Z,68.68
2018-10-02T03:20:12.883Z,67.82
2018-10-02T03:22:42.492Z,67.63
2018-10-02T03:25:12.202Z,68.66
2018-10-02T03:27:41.808Z,68.33
2018-10-02T03:30:11.367Z,68.66
2018-10-02T03:32:41.017Z,68.55
2018-10-02T03:35:10.627Z,68.51
2018-10-02T03:37:40.378Z,68.26
2018-10-02T03:40:09.944Z,69.17
2018-10-02T03:42:39.392Z,70.02
2018-10-02T03:45:09.053Z,68.81
2018-10-02T03:47:38.459Z,68.68
2018-10-02T03:50:08.060Z,68.90
2018-10-02T03:52:37.666Z,68.69
2018-10-02T03:55:07.983Z,69.11
2018-10-02T03:57:37.758Z,69.93
2018-10-02T04:00:07.510Z,69.09
2018-10-02T04:02:37.220Z,68.35
2018-10-02T04:05:06.826Z,68.75
2018-10-02T04:07:36.256Z,68.84
2018-10-02T04:10:05.936Z,68.72
2018-10-02T04:12:35.646Z,68.21
2018-10-02T04:15:05.354Z,68.13
2018-10-02T04:17:34.967Z,68.59
2018-10-02T04:20:04.574Z,67.72
2018-10-02T04:22:34.173Z,67.69
2018-10-02T04:25:03.883Z,67.54
2018-10-02T04:27:33.347Z,67.34
2018-10-02T04:30:02.891Z,67.97
2018-10-02T04:32:32.337Z,67.48
2018-10-02T04:35:01.799Z,67.83
2018-10-02T04:37:31.409Z,68.11
2018-10-02T04:40:00.907Z,67.77
2018-10-02T04:42:30.616Z,68.99
2018-10-02T04:45:00.036Z,69.60
2018-10-02T04:47:29.539Z,68.76
2018-10-02T04:49:59.030Z,69.03
2018-10-02T04:52:28.456Z,70.55
2018-10-02T04:54:57.887Z,70.41
2018-10-02T04:57:27.539Z,70.14
2018-10-02T04:59:57.047Z,71.03
2018-10-02T05:02:26.640Z,71.86
2018-10-02T05:04:56.263Z,71.71
2018-10-02T05:07:25.727Z,70.78
2018-10-02T05:09:55.143Z,71.92
2018-10-02T05:12:24.770Z,72.22
2018-10-02T05:14:54.478Z,72.38
2018-10-02T05:17:23.932Z,72.71
2018-10-02T05:19:53.486Z,72.70
2018-10-02T05:22:22.955Z,72.70
2018-10-02T05:24:52.599Z,72.72
2018-10-02T05:27:22.185Z,72.95
2018-10-02T05:29:51.520Z,72.41
2018-10-02T05:32:21.028Z,71.87
2018-10-02T05:34:50.744Z,71.85
2018-10-02T05:37:20.530Z,71.70
2018-10-02T05:39:50.108Z,71.27
2018-10-02T05:42:19.860Z,71.61
2018-10-02T05:44:50.329Z,70.71
2018-10-02T05:47:20.692Z,70.12
2018-10-02T05:49:50.869Z,69.97
2018-10-02T05:52:21.390Z,71.78
2018-10-02T05:54:51.156Z,70.65
2018-10-02T05:57:20.726Z,71.39
2018-10-02T05:59:50.264Z,71.15
2018-10-02T06:02:22.292Z,70.82
2018-10-02T06:04:51.839Z,70.33
2018-10-02T06:07:21.541Z,71.22
2018-10-02T06:09:51.092Z,71.21
2018-10-02T06:12:21.041Z,71.02
2018-10-02T06:14:50.673Z,71.09
2018-10-02T06:17:20.292Z,71.59
2018-10-02T06:19:49.780Z,71.79
2018-10-02T06:22:19.208Z,71.69
2018-10-02T06:24:48.884Z,72.10
2018-10-02T06:27:18.528Z,71.54
2018-10-02T06:29:52.435Z,70.46
2018-10-02T06:41:29.148Z,73.56
2018-10-02T06:43:58.741Z,72.28
2018-10-02T06:46:28.454Z,71.72
2018-10-02T06:48:58.271Z,71.53
2018-10-02T06:51:28.871Z,70.66
2018-10-02T06:53:58.711Z,69.99
2018-10-02T06:56:28.360Z,69.37
2018-10-02T06:58:58.017Z,68.47
2018-10-02T07:01:27.501Z,67.88
2018-10-02T07:03:57.128Z,67.54
2018-10-02T07:06:26.688Z,69.59
2018-10-02T07:08:56.506Z,70.28
2018-10-02T07:11:26.264Z,69.71
2018-10-02T07:13:55.870Z,70.93
2018-10-02T07:16:25.574Z,70.62
2018-10-02T07:18:55.044Z,70.74
2018-10-02T07:21:24.784Z,69.79
2018-10-02T07:23:54.392Z,70.50
2018-10-02T07:26:24.019Z,69.84
2018-10-02T07:28:53.706Z,69.77
2018-10-02T07:31:23.239Z,69.01
2018-10-02T07:33:52.918Z,69.25
2018-10-02T07:36:22.529Z,69.33
2018-10-02T07:38:54.551Z,69.49
2018-10-02T07:41:24.419Z,70.01
2018-10-02T07:43:53.992Z,68.33
2018-10-02T07:46:24.231Z,69.23
2018-10-02T07:48:56.600Z,69.00
2018-10-02T07:51:26.212Z,69.19
2018-10-02T07:53:55.775Z,70.10
2018-10-02T07:56:25.397Z,70.38
2018-10-02T07:58:55.025Z,71.38
2018-10-02T08:01:24.734Z,69.92
2018-10-02T08:03:54.204Z,70.88
2018-10-02T08:06:23.845Z,72.06
2018-10-02T08:08:53.397Z,72.27
2018-10-02T08:11:22.960Z,72.36
2018-10-02T08:13:52.565Z,73.15
2018-10-02T08:16:22.118Z,71.77
2018-10-02T08:18:51.576Z,73.44
2018-10-02T08:21:21.388Z,74.16
2018-10-02T08:23:50.997Z,73.97
2018-10-02T08:26:20.487Z,74.29
2018-10-02T08:28:50.155Z,76.02
2018-10-02T08:31:19.710Z,76.12
2018-10-02T08:33:49.323Z,75.40
2018-10-02T08:36:19.034Z,75.17
2018-10-02T08:38:48.538Z,75.19
2018-10-02T08:41:17.998Z,75.17
2018-10-02T08:43:47.627Z,75.80
2018-10-02T08:46:17.155Z,75.00
2018-10-02T08:48:46.857Z,75.63
2018-10-02T08:51:16.559Z,75.16
2018-10-02T08:53:46.134Z,73.78
2018-10-02T08:56:15.777Z,74.70
2018-10-02T08:58:45.299Z,74.79
2018-10-02T09:01:14.873Z,73.87
2018-10-02T09:03:44.491Z,75.39
2018-10-02T09:06:14.031Z,75.99
2018-10-02T09:08:43.804Z,75.30
2018-10-02T09:11:13.216Z,74.89
2018-10-02T09:13:42.965Z,75.45
2018-10-02T09:16:12.761Z,76.68
2018-10-02T09:18:42.259Z,75.93
2018-10-02T09:21:11.942Z,74.55
2018-10-02T09:23:41.575Z,74.72
2018-10-02T09:26:11.259Z,75.19
2018-10-02T09:28:40.872Z,76.21
2018-10-02T09:33:22.437Z,75.29
2018-10-02T09:35:57.295Z,75.54
2018-10-02T09:38:32.119Z,75.22
2018-10-02T09:41:06.849Z,75.84
2018-10-02T09:43:39.976Z,74.54
2018-10-02T09:46:09.541Z,74.79
2018-10-02T09:48:39.243Z,74.83
2018-10-02T09:51:08.929Z,74.73
2018-10-02T09:53:38.371Z,74.21
2018-10-02T09:56:08.097Z,74.65
2018-10-02T09:58:37.765Z,74.47
2018-10-02T10:02:10.259Z,74.62
2018-10-02T10:04:39.966Z,74.68
2018-10-02T10:07:09.435Z,75.24
2018-10-02T10:09:39.183Z,75.09
2018-10-02T10:12:08.668Z,74.13
2018-10-02T10:14:38.393Z,74.60
2018-10-02T10:17:07.992Z,74.97
2018-10-02T10:19:37.709Z,74.73
2018-10-02T10:22:07.328Z,73.54
2018-10-02T10:24:36.742Z,73.47
2018-10-02T10:27:06.217Z,72.98
2018-10-02T10:29:35.828Z,73.39
2018-10-02T10:32:05.536Z,72.67
2018-10-02T10:34:35.017Z,73.64
2018-10-02T10:37:04.464Z,74.43
2018-10-02T10:39:34.136Z,75.25
2018-10-02T10:42:03.964Z,74.91
2018-10-02T10:44:33.526Z,75.32
2018-10-02T10:47:03.266Z,74.60
2018-10-02T10:49:32.687Z,74.14
2018-10-02T10:52:02.202Z,75.33
2018-10-02T10:54:31.620Z,74.78
2018-10-02T10:57:01.192Z,73.88
2018-10-02T10:59:30.902Z,75.71
2018-10-02T11:02:00.610Z,74.36
2018-10-02T11:04:30.021Z,73.58
2018-10-02T11:06:59.477Z,73.82
2018-10-02T11:09:29.057Z,74.29
2018-10-02T11:11:58.565Z,74.48
2018-10-02T11:14:29.020Z,72.80
2018-10-02T11:16:58.697Z,72.79
2018-10-02T11:19:28.319Z,74.16
2018-10-02T11:21:58.185Z,72.80
2018-10-02T11:24:27.786Z,72.46
2018-10-02T11:26:57.232Z,72.57
2018-10-02T11:29:27.227Z,72.38
2018-10-02T11:31:57.034Z,73.68
2018-10-02T11:34:26.760Z,73.79
2018-10-02T11:36:56.235Z,75.27
2018-10-02T11:39:25.705Z,76.05
2018-10-02T11:41:55.342Z,75.10
2018-10-02T11:44:24.974Z,75.74
2018-10-02T11:46:54.655Z,76.10
2018-10-02T11:49:24.166Z,76.32
2018-10-02T11:51:53.768Z,76.40
2018-10-02T11:54:23.374Z,76.23
2018-10-02T11:56:53.020Z,76.22
2018-10-02T11:59:23.040Z,76.42
2018-10-02T12:01:52.585Z,76.62
2018-10-02T12:04:22.124Z,77.23
2018-10-02T12:06:51.662Z,77.97
2018-10-02T12:09:21.234Z,79.00
2018-10-02T12:11:51.028Z,78.24
2018-10-02T12:14:20.788Z,77.87
2018-10-02T12:16:50.389Z,77.75
2018-10-02T12:19:19.946Z,77.50
2018-10-02T12:21:49.764Z,77.74
2018-10-02T12:24:19.296Z,78.10
2018-10-02T12:26:49.011Z,77.90
2018-10-02T12:29:18.488Z,77.69
2018-10-02T12:31:48.188Z,78.86
2018-10-02T12:34:17.622Z,78.34
2018-10-02T12:36:47.895Z,78.70
2018-10-02T12:39:17.404Z,79.25
2018-10-02T12:41:46.928Z,78.64
2018-10-02T12:44:16.328Z,78.41
2018-10-02T12:46:46.080Z,79.05
2018-10-02T12:49:17.453Z,79.04
2018-10-02T12:51:47.191Z,79.13
2018-10-02T12:54:16.899Z,79.90
2018-10-02T12:56:46.609Z,79.57
2018-10-02T12:59:16.233Z,78.64
2018-10-02T13:01:45.705Z,78.29
2018-10-02T13:04:15.293Z,77.71
2018-10-02T13:06:45.214Z,77.56
2018-10-02T13:09:14.705Z,77.36
2018-10-02T13:11:44.271Z,77.19
2018-10-02T13:14:13.817Z,77.65
2018-10-02T13:16:43.850Z,77.14
2018-10-02T13:19:13.480Z,77.06
2018-10-02T13:21:42.865Z,77.33
2018-10-02T13:24:12.331Z,77.55
2018-10-02T13:26:41.958Z,77.13
2018-10-02T13:29:11.700Z,75.75
2018-10-02T13:31:41.406Z,76.09
2018-10-02T13:34:11.015Z,76.48
2018-10-02T13:36:40.652Z,76.15
2018-10-02T13:39:10.796Z,76.18
2018-10-02T13:41:40.425Z,76.04
2018-10-02T13:44:10.158Z,76.39
2018-10-02T13:46:40.038Z,76.22
2018-10-02T13:49:09.945Z,77.08
2018-10-02T13:51:39.448Z,77.17
2018-10-02T13:54:09.100Z,77.78
2018-10-02T13:56:38.803Z,77.00
2018-10-02T13:59:08.411Z,77.34
2018-10-02T14:01:38.120Z,77.47
2018-10-02T14:04:09.428Z,77.82
2018-10-02T14:06:39.692Z,78.05
2018-10-02T14:09:09.955Z,78.78
2018-10-02T14:11:39.827Z,78.54
2018-10-02T14:14:09.537Z,78.88
2018-10-02T14:16:39.445Z,79.57
2018-10-02T14:19:09.110Z,79.02
2018-10-02T14:21:38.609Z,78.85
2018-10-02T14:24:08.072Z,79.37
2018-10-02T14:26:37.977Z,79.03
2018-10-02T14:29:08.074Z,78.79
2018-10-02T14:31:37.685Z,79.79
2018-10-02T14:34:07.081Z,79.21
2018-10-02T14:36:36.819Z,78.10
2018-10-02T14:39:08.040Z,78.88
2018-10-02T14:41:37.541Z,79.83
2018-10-02T14:44:07.181Z,80.02
2018-10-02T14:46:36.780Z,78.78
2018-10-02T14:49:06.876Z,78.85
2018-10-02T14:51:36.436Z,79.37
2018-10-02T14:54:06.104Z,79.71
2018-10-02T14:56:35.611Z,79.43
2018-10-02T14:59:05.371Z,79.76
2018-10-02T15:01:34.881Z,79.85
2018-10-02T15:04:04.429Z,79.76
2018-10-02T15:06:34.067Z,79.58
2018-10-02T15:09:04.459Z,79.89
2018-10-02T15:11:33.902Z,79.24
2018-10-02T15:14:03.569Z,79.48
2018-10-02T15:16:33.011Z,78.82
2018-10-02T15:19:02.579Z,79.04
2018-10-02T15:21:32.019Z,78.84
2018-10-02T15:24:03.416Z,78.32
2018-10-02T15:26:32.937Z,78.80
2018-10-02T15:29:02.540Z,78.90
2018-10-02T15:31:32.103Z,78.62
2018-10-02T15:34:01.755Z,79.11
2018-10-02T15:36:31.668Z,79.18
2018-10-02T15:39:01.097Z,78.77
2018-10-02T15:41:30.676Z,78.30
2018-10-02T15:44:00.284Z,79.12
2018-10-02T15:46:29.889Z,79.78
2018-10-02T15:48:59.545Z,80.00
2018-10-02T15:51:31.237Z,80.13
2018-10-02T15:54:01.951Z,80.58
2018-10-02T15:56:31.493Z,80.62
2018-10-02T15:59:01.049Z,80.39
2018-10-02T16:01:30.767Z,79.68
2018-10-02T16:04:00.381Z,79.35
2018-10-02T16:06:30.126Z,79.75
2018-10-02T16:08:59.728Z,80.04
2018-10-02T16:11:29.139Z,80.29
2018-10-02T16:13:58.717Z,80.37
2018-10-02T16:16:28.193Z,79.33
2018-10-02T16:18:57.744Z,80.28
2018-10-02T16:21:27.152Z,80.83
2018-10-02T16:23:56.874Z,80.54
2018-10-02T16:26:26.302Z,80.01
2018-10-02T16:28:55.910Z,80.07
2018-10-02T16:31:25.451Z,79.42
2018-10-02T16:33:55.116Z,78.73
2018-10-02T16:36:24.887Z,79.11
2018-10-02T16:38:54.712Z,79.09
2018-10-02T16:41:24.315Z,79.15
2018-10-02T16:43:54.115Z,78.77
2018-10-02T16:46:23.621Z,77.80
2018-10-02T16:48:53.124Z,78.28
2018-10-02T16:51:22.777Z,79.07
2018-10-02T16:53:52.241Z,78.76
2018-10-02T16:56:21.945Z,79.05
2018-10-02T16:58:51.755Z,79.37
2018-10-02T17:01:21.362Z,80.02
2018-10-02T17:03:50.905Z,80.29
2018-10-02T17:06:20.344Z,80.20
2018-10-02T17:08:49.826Z,80.98
2018-10-02T17:11:19.277Z,80.12
2018-10-02T17:13:48.893Z,79.07
2018-10-02T17:16:18.591Z,79.98
2018-10-02T17:18:48.145Z,79.59
2018-10-02T17:21:17.806Z,79.55
2018-10-02T17:23:47.513Z,79.38
2018-10-02T17:26:16.981Z,79.55
2018-10-02T17:28:46.635Z,80.58
2018-10-02T17:31:16.437Z,80.04
2018-10-02T17:33:46.319Z,78.89
2018-10-02T17:36:15.854Z,78.75
2018-10-02T17:38:45.460Z,78.78
2018-10-02T17:41:15.168Z,78.80
2018-10-02T17:43:44.879Z,79.23
2018-10-02T17:46:14.588Z,78.08
2018-10-02T17:48:44.197Z,77.58
2018-10-02T17:51:13.690Z,78.20
2018-10-02T17:53:43.203Z,77.69
2018-10-02T17:56:12.814Z,78.64
2018-10-02T17:58:42.548Z,79.74
2018-10-02T18:01:12.127Z,79.15
2018-10-02T18:03:41.732Z,78.66
2018-10-02T18:06:11.350Z,79.41
2018-10-02T18:08:40.896Z,79.95
2018-10-02T18:11:10.452Z,79.85
2018-10-02T18:13:43.024Z,79.75
2018-10-02T18:16:12.489Z,79.95
2018-10-02T18:18:42.448Z,79.88
2018-10-02T18:21:11.951Z,79.80
2018-10-02T18:23:41.420Z,79.63
2018-10-02T18:26:10.880Z,80.62
2018-10-02T18:28:40.577Z,80.68
2018-10-02T18:31:10.373Z,80.49
2018-10-02T18:33:39.824Z,80.51
2018-10-02T18:36:09.308Z,80.10
2018-10-02T18:38:38.865Z,80.00
2018-10-02T18:41:08.396Z,79.94
2018-10-02T18:43:38.049Z,79.70
2018-10-02T18:46:07.680Z,79.66
2018-10-02T18:48:37.139Z,78.99
2018-10-02T18:51:06.668Z,78.43
2018-10-02T18:53:36.097Z,79.21
2018-10-02T18:56:05.970Z,80.26
2018-10-02T18:58:35.593Z,79.61
2018-10-02T19:01:05.024Z,79.77
2018-10-02T19:03:34.528Z,80.91
2018-10-02T19:06:04.184Z,80.26
2018-10-02T19:08:38.874Z,79.94
2018-10-02T19:11:13.612Z,80.15
2018-10-02T19:13:43.211Z,79.67
2018-10-02T19:16:17.849Z,79.68
2018-10-02T19:18:47.491Z,78.77
2018-10-02T19:21:17.323Z,78.82
2018-10-02T19:23:47.071Z,78.71
2018-10-02T19:26:23.089Z,77.65
2018-10-02T19:28:52.736Z,78.19
2018-10-02T19:31:27.497Z,78.20
2018-10-02T19:33:57.416Z,79.23
2018-10-02T19:36:27.076Z,79.03
2018-10-02T19:39:06.752Z,77.96
2018-10-02T19:41:36.282Z,78.54
2018-10-02T19:44:06.033Z,78.59
2018-10-02T19:46:42.006Z,77.92
2018-10-02T19:49:11.700Z,79.28
2018-10-02T19:51:46.628Z,77.93
2018-10-02T19:54:16.348Z,77.81
2018-10-02T19:56:45.978Z,77.47
2018-10-02T19:59:15.652Z,77.84
2018-10-02T20:01:45.077Z,77.83
2018-10-02T20:04:14.593Z,77.35
2018-10-02T20:06:44.091Z,78.41
2018-10-02T20:09:13.985Z,79.00
2018-10-02T20:11:43.493Z,78.83
2018-10-02T20:14:13.498Z,77.94
2018-10-02T20:16:43.935Z,77.63
2018-10-02T20:19:13.538Z,78.02
2018-10-02T20:21:43.248Z,78.61
2018-10-02T20:24:12.667Z,78.31
2018-10-02T20:26:42.351Z,78.18
2018-10-02T20:29:12.057Z,78.04
2018-10-02T20:31:46.377Z,77.70
2018-10-02T20:34:15.994Z,78.12
2018-10-02T20:36:45.992Z,78.04
2018-10-02T20:39:15.501Z,78.56
2018-10-02T20:41:45.311Z,78.58
2018-10-02T20:44:14.852Z,78.38
2018-10-02T20:46:44.535Z,77.51
2018-10-02T20:49:14.212Z,76.79
2018-10-02T20:51:44.645Z,76.04
2018-10-02T20:54:14.309Z,75.79
2018-10-02T20:56:43.873Z,75.46
2018-10-02T20:59:13.382Z,74.97
2018-10-02T21:01:43.015Z,75.11
2018-10-02T21:04:12.740Z,76.15
2018-10-02T21:06:42.234Z,74.94
2018-10-02T21:09:11.672Z,75.99
2018-10-02T21:11:41.201Z,75.70
2018-10-02T21:14:10.741Z,76.33
2018-10-02T21:16:40.579Z,75.77
2018-10-02T21:19:10.229Z,76.31
2018-10-02T21:21:39.851Z,76.70
2018-10-02T21:24:09.253Z,75.44
2018-10-02T21:26:38.824Z,75.98
2018-10-02T21:29:08.456Z,76.16
2018-10-02T21:31:38.174Z,75.99
2018-10-02T21:34:07.642Z,76.77
2018-10-02T21:36:37.373Z,77.52
2018-10-02T21:39:08.805Z,76.38
2018-10-02T21:41:38.332Z,77.17
2018-10-02T21:44:07.989Z,76.94
2018-10-02T21:46:37.849Z,76.52
2018-10-02T21:49:07.764Z,76.79
2018-10-02T21:51:37.573Z,75.98
2018-10-02T21:54:07.185Z,75.24
2018-10-02T21:56:36.889Z,75.69
2018-10-02T21:59:06.601Z,75.18
2018-10-02T22:01:36.207Z,75.28
2018-10-02T22:04:06.017Z,75.96
2018-10-02T22:06:35.591Z,75.09
2018-10-02T22:09:10.436Z,75.52
2018-10-02T22:11:40.165Z,76.14
2018-10-02T22:14:09.772Z,75.68
2018-10-02T22:16:39.353Z,76.47
2018-10-02T22:19:09.082Z,76.21
2018-10-02T22:21:44.726Z,75.72
2018-10-02T22:24:14.540Z,76.18
2018-10-02T22:26:44.149Z,77.16
2018-10-02T22:29:13.969Z,77.11
2018-10-02T22:31:43.672Z,77.16
2018-10-02T22:34:13.440Z,76.35
2018-10-02T22:36:43.087Z,76.16
2018-10-02T22:39:12.905Z,75.96
2018-10-02T22:41:42.352Z,76.05
2018-10-02T22:44:11.945Z,75.66
2018-10-02T22:46:41.513Z,76.02
2018-10-02T22:49:11.222Z,75.86
2018-10-02T22:51:41.033Z,76.23
2018-10-02T22:54:10.643Z,75.25
2018-10-02T22:56:40.249Z,75.54
2018-10-02T22:59:09.911Z,75.92
2018-10-02T23:01:39.467Z,75.53
2018-10-02T23:04:09.121Z,75.07
2018-10-02T23:06:38.781Z,75.25
2018-10-02T23:09:11.196Z,74.66
2018-10-02T23:11:40.959Z,75.24
2018-10-02T23:14:10.672Z,74.22
2018-10-02T23:16:40.274Z,74.26
2018-10-02T23:19:09.880Z,74.69
2018-10-02T23:21:39.634Z,74.45
2018-10-02T23:24:09.199Z,74.07
2018-10-02T23:26:38.736Z,73.99
2018-10-02T23:29:08.309Z,73.84
2018-10-02T23:31:38.049Z,73.46
2018-10-02T23:34:07.624Z,74.27
2018-10-02T23:36:37.228Z,74.33
2018-10-02T23:39:08.123Z,74.16
2018-10-02T23:41:37.875Z,74.07
2018-10-02T23:44:18.764Z,74.73
2018-10-02T23:46:48.282Z,74.97
2018-10-02T23:49:17.983Z,73.89
2018-10-02T23:51:47.291Z,74.06
2018-10-02T23:54:16.697Z,73.74
2018-10-02T23:56:46.096Z,74.61
2018-10-02T23:59:15.499Z,74.68
